createdAt,value
2023-03-06T00:02:17.745Z,37.00
2023-03-06T00:04:44.257Z,31.13
2023-03-06T00:07:11.941Z,40.20
2023-03-06T00:09:38.519Z,31.42
2023-03-06T00:12:05.150Z,26.40
2023-03-06T00:14:31.697Z,35.08
2023-03-06T00:16:58.287Z,34.63
2023-03-06T00:19:24.993Z,35.83
2023-03-06T00:21:51.542Z,34.75
2023-03-06T00:24:18.146Z,32.65
2023-03-06T00:26:44.867Z,33.55
2023-03-06T00:29:11.421Z,38.88
2023-03-06T00:31:38.110Z,32.95
2023-03-06T00:34:04.818Z,34.28
2023-03-06T00:36:31.428Z,40.08
2023-03-06T00:38:57.946Z,42.75
2023-03-06T00:41:25.072Z,44.37
2023-03-06T00:43:51.603Z,38.97
2023-03-06T00:46:18.243Z,44.90
2023-03-06T00:48:44.864Z,43.85
2023-03-06T00:51:13.953Z,43.55
2023-03-06T00:53:40.614Z,42.30
2023-03-06T00:56:09.155Z,39.10
2023-03-06T00:58:37.276Z,37.55
2023-03-06T01:01:04.129Z,27.38
2023-03-06T01:03:30.785Z,29.40
2023-03-06T01:05:57.343Z,34.67
2023-03-06T01:08:23.875Z,34.33
2023-03-06T01:10:50.405Z,37.53
2023-03-06T01:13:17.376Z,36.95
2023-03-06T01:15:43.964Z,24.30
2023-03-06T01:18:10.582Z,27.83
2023-03-06T01:20:37.178Z,27.65
2023-03-06T01:23:03.769Z,32.88
2023-03-06T01:25:30.316Z,32.72
2023-03-06T01:27:56.915Z,26.55
2023-03-06T01:30:23.500Z,20.27
2023-03-06T01:32:50.087Z,31.98
2023-03-06T01:35:16.695Z,24.67
2023-03-06T01:37:43.271Z,24.95
2023-03-06T01:40:10.918Z,28.83
2023-03-06T01:42:37.715Z,24.65
2023-03-06T01:45:08.267Z,21.25
2023-03-06T01:47:35.121Z,24.70
2023-03-06T01:50:04.064Z,23.17
2023-03-06T01:52:33.030Z,22.83
2023-03-06T01:55:05.422Z,23.17
2023-03-06T01:57:36.454Z,20.02
2023-03-06T02:00:07.176Z,23.38
2023-03-06T02:02:40.992Z,25.17
2023-03-06T02:07:34.853Z,23.27
2023-03-06T02:10:01.447Z,26.63
2023-03-06T02:12:28.101Z,22.85
2023-03-06T02:14:54.714Z,22.85
2023-03-06T02:17:22.367Z,24.02
2023-03-06T02:19:48.870Z,23.73
2023-03-06T02:22:17.859Z,23.33
2023-03-06T02:24:53.485Z,21.75
2023-03-06T02:27:20.617Z,35.75
2023-03-06T02:29:47.361Z,28.80
2023-03-06T02:32:14.587Z,28.08
2023-03-06T02:34:49.916Z,25.88
2023-03-06T02:37:16.509Z,29.60
2023-03-06T02:39:46.308Z,28.45
2023-03-06T02:42:20.703Z,27.17
2023-03-06T02:44:47.903Z,28.63
2023-03-06T02:47:14.451Z,34.17
2023-03-06T02:49:41.011Z,31.17
2023-03-06T02:52:08.070Z,32.72
2023-03-06T02:54:34.599Z,29.88
2023-03-06T02:57:02.096Z,31.92
2023-03-06T02:59:29.706Z,29.77
2023-03-06T03:01:57.550Z,25.92
2023-03-06T03:04:24.425Z,32.95
2023-03-06T03:06:51.286Z,29.90
2023-03-06T03:09:18.157Z,28.05
2023-03-06T03:11:44.688Z,29.50
2023-03-06T03:14:11.968Z,26.67
2023-03-06T03:16:39.287Z,29.35
2023-03-06T03:19:05.921Z,29.88
2023-03-06T03:24:00.501Z,25.25
2023-03-06T03:26:27.928Z,25.75
2023-03-06T03:29:02.205Z,25.35
2023-03-06T03:31:28.924Z,27.23
2023-03-06T03:33:55.726Z,26.30
2023-03-06T03:36:23.000Z,26.23
2023-03-06T03:38:49.625Z,25.87
2023-03-06T03:41:16.504Z,27.50
2023-03-06T03:43:43.318Z,31.92
2023-03-06T03:46:10.082Z,31.73
2023-03-06T03:48:36.790Z,30.20
2023-03-06T03:51:08.594Z,28.38
2023-03-06T03:53:39.200Z,33.83
2023-03-06T03:56:07.345Z,38.15
2023-03-06T03:58:39.508Z,23.98
2023-03-06T04:01:06.350Z,39.10
2023-03-06T04:03:33.094Z,24.52
2023-03-06T04:06:00.148Z,38.65
2023-03-06T04:08:27.926Z,42.80
2023-03-06T04:10:54.525Z,35.38
2023-03-06T04:15:50.136Z,41.03
2023-03-06T04:18:19.299Z,47.28
2023-03-06T04:20:46.654Z,55.78
2023-03-06T04:23:13.303Z,47.17
2023-03-06T04:25:40.205Z,48.25
2023-03-06T04:28:09.429Z,47.25
2023-03-06T04:30:35.989Z,56.95
2023-03-06T04:33:02.930Z,51.33
2023-03-06T04:35:29.755Z,51.20
2023-03-06T04:38:01.150Z,44.78
2023-03-06T04:40:30.604Z,43.15
2023-03-06T04:42:57.926Z,44.85
2023-03-06T04:45:24.736Z,48.80
2023-03-06T04:47:51.370Z,42.10
2023-03-06T04:50:18.498Z,54.30
2023-03-06T04:52:45.069Z,47.35
2023-03-06T04:55:12.886Z,41.47
2023-03-06T04:57:40.282Z,43.53
2023-03-06T05:00:09.587Z,40.13
2023-03-06T05:02:36.753Z,45.50
2023-03-06T05:05:03.520Z,29.13
2023-03-06T05:07:30.065Z,47.58
2023-03-06T05:09:56.798Z,49.92
2023-03-06T05:12:23.335Z,48.30
2023-03-06T05:14:49.910Z,44.03
2023-03-06T05:17:16.432Z,49.58
2023-03-06T05:19:42.977Z,53.88
2023-03-06T05:22:09.549Z,48.78
2023-03-06T05:24:36.732Z,49.95
2023-03-06T05:27:03.351Z,43.75
2023-03-06T05:29:29.968Z,42.03
2023-03-06T05:31:56.499Z,49.20
2023-03-06T05:34:23.094Z,43.35
2023-03-06T05:36:49.633Z,44.00
2023-03-06T05:39:16.184Z,42.72
2023-03-06T05:41:42.742Z,48.05
2023-03-06T05:44:09.329Z,45.03
2023-03-06T05:46:35.916Z,48.85
2023-03-06T05:49:02.494Z,51.17
2023-03-06T05:51:29.163Z,53.22
2023-03-06T05:53:55.735Z,44.45
2023-03-06T05:56:22.354Z,49.97
2023-03-06T05:58:48.980Z,55.65
2023-03-06T06:01:18.043Z,55.00
2023-03-06T06:03:45.013Z,50.67
2023-03-06T06:06:12.675Z,46.23
2023-03-06T06:08:39.626Z,47.08
2023-03-06T06:11:06.959Z,48.43
2023-03-06T06:13:34.075Z,47.38
2023-03-06T06:16:00.718Z,58.88
2023-03-06T06:18:27.380Z,52.67
2023-03-06T06:20:55.868Z,60.88
2023-03-06T06:23:22.570Z,46.50
2023-03-06T06:25:49.179Z,55.08
2023-03-06T06:28:15.834Z,46.28
2023-03-06T06:30:42.413Z,53.90
2023-03-06T06:33:08.973Z,31.48
2023-03-06T06:35:36.422Z,57.42
2023-03-06T06:38:03.144Z,52.78
2023-03-06T06:40:29.732Z,47.80
2023-03-06T06:42:56.233Z,50.72
2023-03-06T06:45:22.789Z,45.30
2023-03-06T06:47:50.192Z,47.15
2023-03-06T06:50:16.872Z,50.97
2023-03-06T06:52:43.460Z,35.22
2023-03-06T06:55:10.746Z,55.60
2023-03-06T06:57:37.355Z,61.67
2023-03-06T07:00:04.890Z,50.85
2023-03-06T07:02:32.324Z,48.60
2023-03-06T07:05:06.106Z,57.70
2023-03-06T07:07:36.717Z,56.92
2023-03-06T07:10:13.054Z,63.38
2023-03-06T07:12:39.667Z,64.05
2023-03-06T07:15:06.904Z,56.33
2023-03-06T07:17:33.619Z,53.30
2023-03-06T07:20:00.294Z,34.13
2023-03-06T07:22:26.904Z,48.42
2023-03-06T07:24:53.465Z,52.63
2023-03-06T07:27:20.023Z,46.75
2023-03-06T07:29:46.697Z,51.95
2023-03-06T07:32:13.304Z,57.10
2023-03-06T07:34:39.903Z,57.33
2023-03-06T07:37:06.502Z,61.80
2023-03-06T07:39:33.032Z,47.50
2023-03-06T07:41:59.601Z,55.88
2023-03-06T07:44:26.413Z,43.83
2023-03-06T07:46:53.100Z,51.38
2023-03-06T07:49:20.288Z,50.33
2023-03-06T07:51:47.027Z,36.33
2023-03-06T07:54:13.552Z,48.00
2023-03-06T07:56:40.118Z,44.65
2023-03-06T07:59:06.660Z,47.03
2023-03-06T08:01:33.313Z,46.80
2023-03-06T08:04:01.979Z,37.83
2023-03-06T08:06:28.683Z,47.03
2023-03-06T08:08:55.764Z,40.72
2023-03-06T08:11:23.727Z,56.93
2023-03-06T08:16:23.073Z,47.53
2023-03-06T08:18:49.672Z,36.03
2023-03-06T08:21:17.853Z,54.42
2023-03-06T08:23:44.830Z,54.83
2023-03-06T08:26:15.535Z,45.42
2023-03-06T08:28:42.412Z,51.15
2023-03-06T08:31:10.707Z,27.05
2023-03-06T08:33:37.414Z,57.92
2023-03-06T08:36:04.466Z,51.95
2023-03-06T08:38:31.110Z,56.23
2023-03-06T08:40:57.794Z,44.55
2023-03-06T08:43:24.369Z,47.05
2023-03-06T08:45:54.460Z,59.42
2023-03-06T08:48:21.165Z,58.97
2023-03-06T08:50:48.014Z,58.10
2023-03-06T08:53:14.681Z,51.70
2023-03-06T08:55:41.225Z,70.90
2023-03-06T08:58:08.617Z,49.35
2023-03-06T09:00:35.553Z,57.67
2023-03-06T09:03:02.188Z,51.80
2023-03-06T09:05:28.748Z,144.20
2023-03-06T09:07:55.596Z,58.47
2023-03-06T09:10:24.131Z,56.80
2023-03-06T09:12:53.783Z,49.58
2023-03-06T09:15:22.036Z,54.22
2023-03-06T09:17:48.769Z,57.50
2023-03-06T09:20:15.595Z,55.38
2023-03-06T09:22:42.554Z,39.42
2023-03-06T09:25:10.130Z,52.53
2023-03-06T09:27:36.727Z,42.78
2023-03-06T09:30:03.418Z,53.40
2023-03-06T09:32:30.120Z,54.33
2023-03-06T09:34:56.734Z,56.53
2023-03-06T09:37:23.465Z,50.75
2023-03-06T09:39:49.977Z,59.30
2023-03-06T09:42:18.465Z,61.85
2023-03-06T09:44:47.503Z,34.90
2023-03-06T09:47:14.028Z,49.42
2023-03-06T09:49:55.592Z,54.15
2023-03-06T09:52:45.994Z,40.30
2023-03-06T09:55:15.077Z,49.28
2023-03-06T09:57:45.060Z,42.30
2023-03-06T10:00:14.643Z,52.97
2023-03-06T10:02:41.404Z,65.43
2023-03-06T10:05:15.836Z,59.03
2023-03-06T10:07:54.650Z,79.70
2023-03-06T10:10:25.994Z,58.08
2023-03-06T10:13:00.316Z,111.13
2023-03-06T10:15:28.885Z,52.35
2023-03-06T10:17:56.201Z,52.92
2023-03-06T10:20:37.227Z,74.35
2023-03-06T10:23:24.883Z,56.83
2023-03-06T10:28:38.167Z,62.42
2023-03-06T10:31:07.777Z,37.03
2023-03-06T10:33:40.151Z,47.97
2023-03-06T10:36:06.821Z,42.10
2023-03-06T10:38:37.728Z,50.60
2023-03-06T10:41:08.852Z,38.95
2023-03-06T10:43:36.580Z,37.47
2023-03-06T10:48:30.729Z,40.50
2023-03-06T10:51:18.456Z,46.72
2023-03-06T10:53:48.859Z,60.10
2023-03-06T10:56:25.486Z,41.25
2023-03-06T10:59:04.706Z,36.25
2023-03-06T11:01:31.385Z,41.95
2023-03-06T11:04:27.491Z,47.88
2023-03-06T11:07:05.955Z,58.03
2023-03-06T11:09:35.808Z,28.10
2023-03-06T11:12:19.736Z,45.63
2023-03-06T11:14:46.385Z,29.73
2023-03-06T11:17:29.489Z,28.08
2023-03-06T11:20:14.849Z,47.47
2023-03-06T11:22:42.770Z,60.47
2023-03-06T11:27:38.207Z,39.67
2023-03-06T11:30:14.550Z,24.23
2023-03-06T11:32:44.562Z,41.67
2023-03-06T11:35:19.406Z,33.47
2023-03-06T11:37:49.237Z,32.28
2023-03-06T11:40:31.929Z,36.72
2023-03-06T11:43:01.448Z,34.20
2023-03-06T11:45:42.443Z,31.67
2023-03-06T11:48:11.795Z,22.65
2023-03-06T11:50:43.109Z,37.85
2023-03-06T11:53:14.121Z,32.40
2023-03-06T11:55:47.781Z,33.75
2023-03-06T11:58:32.984Z,32.45
2023-03-06T12:01:18.134Z,30.30
2023-03-06T12:04:03.430Z,32.45
2023-03-06T12:06:30.061Z,35.50
2023-03-06T12:08:56.560Z,29.40
2023-03-06T12:11:24.376Z,28.20
2023-03-06T12:16:19.424Z,25.50
2023-03-06T12:18:51.993Z,19.33
2023-03-06T12:21:24.247Z,19.27
2023-03-06T12:23:50.772Z,17.50
2023-03-06T12:26:20.129Z,22.80
2023-03-06T12:29:09.625Z,20.30
2023-03-06T12:31:40.121Z,13.35
2023-03-06T12:34:19.006Z,22.33
2023-03-06T12:37:00.114Z,27.98
2023-03-06T12:39:32.692Z,30.45
2023-03-06T12:42:11.499Z,26.38
2023-03-06T12:44:47.536Z,22.05
2023-03-06T12:47:17.456Z,28.65
2023-03-06T12:49:48.458Z,18.63
2023-03-06T12:52:21.579Z,20.27
2023-03-06T12:54:52.939Z,28.67
2023-03-06T12:57:19.527Z,26.23
2023-03-06T12:59:49.547Z,19.48
2023-03-06T13:02:28.533Z,27.40
2023-03-06T13:05:13.608Z,17.25
2023-03-06T13:07:40.147Z,33.45
2023-03-06T13:10:25.537Z,23.52
2023-03-06T13:12:57.903Z,19.23
2023-03-06T13:15:39.414Z,25.50
2023-03-06T13:18:29.368Z,30.15
2023-03-06T13:20:56.220Z,19.13
2023-03-06T13:23:43.108Z,21.67
2023-03-06T13:26:11.050Z,16.67
2023-03-06T13:31:04.098Z,17.60
2023-03-06T13:33:50.641Z,18.88
2023-03-06T13:36:30.135Z,21.55
2023-03-06T13:38:59.450Z,17.75
2023-03-06T13:41:26.873Z,14.50
2023-03-06T13:43:54.982Z,15.52
2023-03-06T13:46:27.931Z,18.55
2023-03-06T13:49:10.657Z,14.25
2023-03-06T13:51:41.828Z,19.15
2023-03-06T13:54:27.188Z,16.85
2023-03-06T13:57:04.029Z,19.73
2023-03-06T13:59:50.513Z,17.03
2023-03-06T14:02:33.980Z,18.30
2023-03-06T14:05:04.692Z,18.63
2023-03-06T14:07:32.423Z,22.38
2023-03-06T14:09:58.984Z,24.17
2023-03-06T14:12:34.321Z,19.52
2023-03-06T14:15:04.019Z,26.77
2023-03-06T14:17:30.584Z,17.00
2023-03-06T14:20:00.032Z,15.18
2023-03-06T14:22:26.591Z,13.57
2023-03-06T14:24:54.841Z,19.38
2023-03-06T14:27:37.001Z,13.27
2023-03-06T14:30:07.481Z,12.77
2023-03-06T14:32:34.305Z,15.45
2023-03-06T14:35:00.930Z,15.35
2023-03-06T14:37:29.064Z,40.75
2023-03-06T14:39:56.327Z,62.47
2023-03-06T14:42:29.606Z,19.00
2023-03-06T14:45:07.151Z,16.38
2023-03-06T14:47:35.366Z,16.63
2023-03-06T14:50:21.533Z,19.35
2023-03-06T14:52:49.123Z,17.63
2023-03-06T14:55:18.846Z,17.10
2023-03-06T14:57:47.395Z,17.13
2023-03-06T15:00:17.476Z,22.20
2023-03-06T15:02:45.062Z,17.00
2023-03-06T15:05:23.077Z,15.38
2023-03-06T15:07:50.294Z,20.77
2023-03-06T15:10:27.741Z,39.47
2023-03-06T15:12:54.363Z,40.00
2023-03-06T15:15:28.495Z,24.38
2023-03-06T15:17:55.110Z,24.92
2023-03-06T15:20:36.616Z,17.92
2023-03-06T15:23:03.282Z,15.77
2023-03-06T15:25:30.844Z,31.95
2023-03-06T15:27:58.553Z,32.90
2023-03-06T15:30:27.207Z,25.23
2023-03-06T15:33:12.581Z,35.05
2023-03-06T15:35:39.287Z,19.17
2023-03-06T15:38:22.779Z,18.75
2023-03-06T15:40:59.720Z,30.10
2023-03-06T15:43:27.490Z,30.27
2023-03-06T15:45:57.783Z,27.55
2023-03-06T15:48:24.326Z,40.70
2023-03-06T15:50:50.967Z,20.30
2023-03-06T15:53:17.586Z,22.88
2023-03-06T15:55:44.242Z,47.55
2023-03-06T15:58:14.381Z,17.55
2023-03-06T16:00:41.139Z,62.33
2023-03-06T16:03:09.583Z,32.75
2023-03-06T16:05:36.151Z,38.75
2023-03-06T16:08:02.738Z,23.70
2023-03-06T16:10:30.430Z,21.33
2023-03-06T16:13:04.484Z,21.33
2023-03-06T16:15:33.168Z,64.80
2023-03-06T16:18:00.193Z,26.60
2023-03-06T16:20:27.476Z,28.20
2023-03-06T16:22:54.842Z,33.67
2023-03-06T16:25:22.564Z,41.53
2023-03-06T16:27:58.392Z,28.95
2023-03-06T16:30:26.792Z,29.13
2023-03-06T16:32:53.428Z,16.42
2023-03-06T16:35:20.109Z,26.17
2023-03-06T16:37:46.690Z,26.30
2023-03-06T16:40:22.135Z,24.35
2023-03-06T16:42:49.661Z,28.20
2023-03-06T16:45:16.740Z,25.33
2023-03-06T16:47:44.226Z,31.95
2023-03-06T16:50:19.600Z,19.10
2023-03-06T16:52:46.169Z,19.10
2023-03-06T16:55:12.744Z,34.25
2023-03-06T16:57:39.300Z,22.58
2023-03-06T17:00:06.656Z,20.33
2023-03-06T17:02:33.292Z,27.10
2023-03-06T17:04:59.865Z,22.85
2023-03-06T17:07:26.425Z,38.78
2023-03-06T17:09:52.989Z,37.17
2023-03-06T17:12:19.785Z,22.17
2023-03-06T17:14:46.384Z,35.15
2023-03-06T17:17:13.021Z,16.20
2023-03-06T17:19:39.561Z,30.00
2023-03-06T17:22:06.130Z,11.25
2023-03-06T17:24:32.686Z,15.27
2023-03-06T17:26:59.479Z,25.45
2023-03-06T17:29:26.007Z,21.80
2023-03-06T17:31:52.620Z,20.45
2023-03-06T17:34:19.182Z,14.52
2023-03-06T17:36:45.756Z,19.45
2023-03-06T17:39:12.942Z,12.35
2023-03-06T17:41:39.536Z,11.80
2023-03-06T17:44:06.085Z,15.23
2023-03-06T17:46:32.754Z,16.98
2023-03-06T17:48:59.368Z,11.15
2023-03-06T17:51:26.050Z,17.35
2023-03-06T17:53:53.261Z,11.25
2023-03-06T17:56:19.814Z,14.88
2023-03-06T17:58:46.387Z,9.50
2023-03-06T18:01:17.900Z,13.27
2023-03-06T18:03:45.514Z,17.00
2023-03-06T18:06:12.402Z,16.38
2023-03-06T18:08:39.014Z,17.00
2023-03-06T18:11:06.941Z,17.35
2023-03-06T18:16:00.727Z,15.20
2023-03-06T18:18:28.367Z,16.40
2023-03-06T18:20:54.978Z,17.98
2023-03-06T18:23:21.824Z,20.85
2023-03-06T18:25:48.416Z,17.15
2023-03-06T18:28:15.016Z,19.73
2023-03-06T18:30:42.373Z,13.93
2023-03-06T18:33:09.917Z,18.65
2023-03-06T18:35:36.621Z,13.32
2023-03-06T18:38:03.524Z,17.20
2023-03-06T18:40:30.196Z,15.88
2023-03-06T18:42:56.824Z,19.48
2023-03-06T18:45:23.425Z,18.27
2023-03-06T18:47:49.963Z,16.63
2023-03-06T18:50:17.696Z,17.38
2023-03-06T18:52:44.560Z,21.52
2023-03-06T18:55:11.744Z,18.33
2023-03-06T18:57:38.631Z,21.20
2023-03-06T19:00:05.983Z,15.95
2023-03-06T19:02:32.582Z,18.20
2023-03-06T19:04:59.108Z,15.95
2023-03-06T19:07:25.669Z,19.63
2023-03-06T19:09:52.260Z,21.58
2023-03-06T19:12:18.889Z,21.50
2023-03-06T19:14:45.532Z,12.00
2023-03-06T19:17:12.454Z,17.50
2023-03-06T19:19:39.056Z,15.87
2023-03-06T19:22:05.636Z,17.45
2023-03-06T19:24:32.187Z,13.77
2023-03-06T19:26:58.777Z,20.30
2023-03-06T19:29:25.357Z,19.52
2023-03-06T19:31:52.272Z,12.98
2023-03-06T19:34:18.942Z,16.40
2023-03-06T19:36:45.631Z,9.32
2023-03-06T19:39:12.251Z,19.58
2023-03-06T19:41:38.894Z,25.58
2023-03-06T19:44:05.956Z,22.70
2023-03-06T19:46:33.182Z,15.23
2023-03-06T19:49:01.089Z,22.90
2023-03-06T19:51:27.760Z,23.60
2023-03-06T19:53:55.430Z,27.00
2023-03-06T19:56:23.000Z,20.80
2023-03-06T19:58:49.702Z,26.35
2023-03-06T20:01:17.561Z,18.50
2023-03-06T20:06:13.243Z,15.02
2023-03-06T20:08:39.826Z,18.80
2023-03-06T20:11:06.379Z,20.58
2023-03-06T20:13:33.008Z,15.80
2023-03-06T20:16:02.563Z,18.73
2023-03-06T20:18:29.215Z,19.02
2023-03-06T20:20:59.529Z,24.48
2023-03-06T20:23:26.636Z,15.15
2023-03-06T20:25:53.383Z,17.50
2023-03-06T20:28:20.364Z,15.25
2023-03-06T20:30:46.924Z,19.83
2023-03-06T20:33:15.401Z,15.25
2023-03-06T20:35:42.758Z,14.35
2023-03-06T20:38:09.504Z,15.55
2023-03-06T20:40:36.886Z,13.15
2023-03-06T20:43:03.668Z,14.60
2023-03-06T20:45:30.227Z,13.70
2023-03-06T20:47:57.230Z,22.90
2023-03-06T20:50:23.941Z,10.30
2023-03-06T20:52:53.224Z,18.58
2023-03-06T20:55:19.801Z,16.08
2023-03-06T20:57:49.010Z,15.30
2023-03-06T21:00:15.768Z,11.45
2023-03-06T21:02:42.298Z,15.77
2023-03-06T21:05:09.113Z,18.67
2023-03-06T21:07:35.996Z,16.58
2023-03-06T21:10:02.636Z,14.00
2023-03-06T21:12:29.188Z,10.43
2023-03-06T21:14:55.786Z,16.88
2023-03-06T21:17:22.307Z,15.48
2023-03-06T21:19:48.886Z,15.85
2023-03-06T21:22:15.541Z,16.13
2023-03-06T21:24:42.951Z,13.55
2023-03-06T21:27:09.571Z,17.23
2023-03-06T21:29:36.135Z,13.15
2023-03-06T21:32:02.739Z,16.08
2023-03-06T21:34:29.293Z,18.65
2023-03-06T21:36:55.822Z,14.85
2023-03-06T21:39:22.397Z,14.70
2023-03-06T21:41:48.985Z,18.52
2023-03-06T21:44:15.572Z,10.00
2023-03-06T21:46:42.130Z,18.50
2023-03-06T21:49:08.705Z,34.60
2023-03-06T21:51:35.282Z,9.88
2023-03-06T21:54:02.949Z,11.48
2023-03-06T21:56:29.648Z,15.32
2023-03-06T21:58:56.527Z,20.15
2023-03-06T22:01:24.561Z,8.80
2023-03-06T22:03:51.402Z,11.60
2023-03-06T22:06:19.413Z,7.80
2023-03-06T22:08:46.209Z,13.25
2023-03-06T22:11:14.782Z,7.75
2023-03-06T22:13:41.545Z,12.43
2023-03-06T22:16:08.764Z,7.88
2023-03-06T22:18:35.755Z,15.43
2023-03-06T22:21:12.583Z,13.63
2023-03-06T22:23:40.437Z,8.50
2023-03-06T22:26:08.496Z,8.60
2023-03-06T22:28:35.444Z,13.02
2023-03-06T22:31:08.180Z,9.60
2023-03-06T22:33:35.051Z,9.25
2023-03-06T22:36:06.455Z,6.85
2023-03-06T22:38:37.137Z,5.25
2023-03-06T22:41:04.378Z,5.95
2023-03-06T22:43:31.334Z,4.85
2023-03-06T22:46:02.188Z,7.03
2023-03-06T22:48:28.874Z,7.18
2023-03-06T22:50:55.488Z,8.88
2023-03-06T22:53:22.022Z,7.85
2023-03-06T22:55:48.615Z,6.50
2023-03-06T22:58:15.210Z,10.55
2023-03-06T23:00:41.784Z,7.78
2023-03-06T23:03:08.340Z,5.93
2023-03-06T23:05:34.968Z,8.32
2023-03-06T23:08:01.543Z,9.32
2023-03-06T23:10:28.034Z,6.13
2023-03-06T23:13:13.116Z,9.50
2023-03-06T23:16:01.588Z,9.82
2023-03-06T23:18:46.853Z,4.38
2023-03-06T23:21:32.092Z,7.00
2023-03-06T23:24:17.214Z,10.65
2023-03-06T23:26:43.803Z,7.38
2023-03-06T23:29:10.420Z,3.70
2023-03-06T23:31:37.414Z,6.88
2023-03-06T23:34:04.457Z,8.00
2023-03-06T23:36:31.290Z,7.67
2023-03-06T23:38:58.524Z,6.28
2023-03-06T23:41:25.298Z,4.55
2023-03-06T23:43:54.941Z,7.85
2023-03-06T23:46:21.876Z,6.90
2023-03-06T23:48:48.519Z,5.22
2023-03-06T23:51:16.658Z,6.35
2023-03-06T23:53:47.006Z,4.88
2023-03-06T23:56:13.765Z,7.78
2023-03-06T23:58:40.904Z,11.77
